sensor_id;sensor_type;location;lat;lon;timestamp;P1;durP1;ratioP1;P2;durP2;ratioP2
10896;SDS011;5501;51.176;6.470;2023-07-20T00:01:45;4.00;;;2.50;;
10896;SDS011;5501;51.176;6.470;2023-07-20T00:06:47;6.80;;;2.15;;
10896;SDS011;5501;51.176;6.470;2023-07-20T00:11:49;2.33;;;1.70;;
10896;SDS011;5501;51.176;6.470;2023-07-20T00:16:52;2.85;;;1.85;;
10896;SDS011;5501;51.176;6.470;2023-07-20T00:21:59;4.22;;;1.90;;
10896;SDS011;5501;51.176;6.470;2023-07-20T00:27:01;3.35;;;2.28;;
10896;SDS011;5501;51.176;6.470;2023-07-20T00:32:04;2.30;;;2.10;;
10896;SDS011;5501;51.176;6.470;2023-07-20T00:37:06;2.88;;;2.10;;
10896;SDS011;5501;51.176;6.470;2023-07-20T00:42:08;4.55;;;1.90;;
10896;SDS011;5501;51.176;6.470;2023-07-20T00:47:09;2.78;;;1.83;;
10896;SDS011;5501;51.176;6.470;2023-07-20T00:52:11;2.30;;;1.52;;
10896;SDS011;5501;51.176;6.470;2023-07-20T00:57:16;5.00;;;1.98;;
10896;SDS011;5501;51.176;6.470;2023-07-20T01:02:18;2.92;;;1.75;;
10896;SDS011;5501;51.176;6.470;2023-07-20T01:07:23;2.50;;;1.55;;
10896;SDS011;5501;51.176;6.470;2023-07-20T01:12:30;4.47;;;1.90;;
10896;SDS011;5501;51.176;6.470;2023-07-20T01:17:37;3.90;;;2.15;;
10896;SDS011;5501;51.176;6.470;2023-07-20T01:33:37;2.85;;;1.70;;
10896;SDS011;5501;51.176;6.470;2023-07-20T01:38:41;3.00;;;1.70;;
10896;SDS011;5501;51.176;6.470;2023-07-20T01:43:43;2.53;;;1.90;;
10896;SDS011;5501;51.176;6.470;2023-07-20T01:48:45;5.60;;;2.45;;
10896;SDS011;5501;51.176;6.470;2023-07-20T01:53:46;3.50;;;1.73;;
10896;SDS011;5501;51.176;6.470;2023-07-20T01:58:48;4.63;;;2.00;;
10896;SDS011;5501;51.176;6.470;2023-07-20T02:03:50;4.55;;;2.10;;
10896;SDS011;5501;51.176;6.470;2023-07-20T02:08:51;2.38;;;2.17;;
10896;SDS011;5501;51.176;6.470;2023-07-20T02:13:54;2.85;;;1.92;;
10896;SDS011;5501;51.176;6.470;2023-07-20T02:18:56;3.22;;;1.90;;
10896;SDS011;5501;51.176;6.470;2023-07-20T02:23:59;2.45;;;2.20;;
10896;SDS011;5501;51.176;6.470;2023-07-20T02:29:01;7.55;;;3.40;;
10896;SDS011;5501;51.176;6.470;2023-07-20T02:34:06;3.78;;;2.20;;
10896;SDS011;5501;51.176;6.470;2023-07-20T02:39:08;6.72;;;2.40;;
10896;SDS011;5501;51.176;6.470;2023-07-20T02:44:10;3.20;;;2.08;;
10896;SDS011;5501;51.176;6.470;2023-07-20T02:49:11;3.20;;;2.22;;
10896;SDS011;5501;51.176;6.470;2023-07-20T02:54:13;3.22;;;2.40;;
10896;SDS011;5501;51.176;6.470;2023-07-20T02:59:15;7.20;;;3.25;;
10896;SDS011;5501;51.176;6.470;2023-07-20T03:04:16;2.88;;;2.40;;
10896;SDS011;5501;51.176;6.470;2023-07-20T03:09:18;6.78;;;3.03;;
10896;SDS011;5501;51.176;6.470;2023-07-20T03:14:19;4.32;;;2.92;;
10896;SDS011;5501;51.176;6.470;2023-07-20T03:19:21;2.67;;;2.00;;
10896;SDS011;5501;51.176;6.470;2023-07-20T03:24:23;5.57;;;3.17;;
10896;SDS011;5501;51.176;6.470;2023-07-20T03:29:25;4.50;;;2.92;;
10896;SDS011;5501;51.176;6.470;2023-07-20T03:34:27;4.47;;;2.97;;
10896;SDS011;5501;51.176;6.470;2023-07-20T03:39:28;3.15;;;2.38;;
10896;SDS011;5501;51.176;6.470;2023-07-20T03:44:30;5.63;;;2.58;;
10896;SDS011;5501;51.176;6.470;2023-07-20T03:49:32;3.00;;;2.33;;
10896;SDS011;5501;51.176;6.470;2023-07-20T03:54:33;2.83;;;2.30;;
10896;SDS011;5501;51.176;6.470;2023-07-20T03:59:36;4.97;;;2.70;;
10896;SDS011;5501;51.176;6.470;2023-07-20T04:04:38;3.28;;;2.42;;
10896;SDS011;5501;51.176;6.470;2023-07-20T04:09:40;6.15;;;2.90;;
10896;SDS011;5501;51.176;6.470;2023-07-20T04:14:41;3.42;;;2.85;;
10896;SDS011;5501;51.176;6.470;2023-07-20T04:19:43;5.03;;;2.60;;
10896;SDS011;5501;51.176;6.470;2023-07-20T04:24:45;3.17;;;2.42;;
10896;SDS011;5501;51.176;6.470;2023-07-20T04:29:47;4.38;;;2.47;;
10896;SDS011;5501;51.176;6.470;2023-07-20T04:34:49;3.60;;;2.58;;
10896;SDS011;5501;51.176;6.470;2023-07-20T04:39:51;4.82;;;2.70;;
10896;SDS011;5501;51.176;6.470;2023-07-20T04:44:53;4.38;;;2.75;;
10896;SDS011;5501;51.176;6.470;2023-07-20T04:49:54;4.35;;;2.53;;
10896;SDS011;5501;51.176;6.470;2023-07-20T04:54:56;3.78;;;2.67;;
10896;SDS011;5501;51.176;6.470;2023-07-20T05:00:01;4.72;;;2.88;;
10896;SDS011;5501;51.176;6.470;2023-07-20T05:05:03;4.82;;;2.83;;
10896;SDS011;5501;51.176;6.470;2023-07-20T05:10:07;5.13;;;3.13;;
10896;SDS011;5501;51.176;6.470;2023-07-20T05:15:09;3.75;;;3.08;;
10896;SDS011;5501;51.176;6.470;2023-07-20T05:20:13;8.57;;;4.65;;
10896;SDS011;5501;51.176;6.470;2023-07-20T05:25:14;5.45;;;3.90;;
10896;SDS011;5501;51.176;6.470;2023-07-20T05:30:19;8.98;;;5.78;;
10896;SDS011;5501;51.176;6.470;2023-07-20T05:35:21;8.82;;;5.28;;
10896;SDS011;5501;51.176;6.470;2023-07-20T05:40:23;7.60;;;6.07;;
10896;SDS011;5501;51.176;6.470;2023-07-20T05:45:25;8.32;;;5.97;;
10896;SDS011;5501;51.176;6.470;2023-07-20T05:50:26;10.95;;;6.40;;
10896;SDS011;5501;51.176;6.470;2023-07-20T05:55:28;7.97;;;6.07;;
10896;SDS011;5501;51.176;6.470;2023-07-20T06:00:30;6.45;;;5.70;;
10896;SDS011;5501;51.176;6.470;2023-07-20T06:05:31;7.55;;;5.43;;
10896;SDS011;5501;51.176;6.470;2023-07-20T06:10:33;7.78;;;4.95;;
10896;SDS011;5501;51.176;6.470;2023-07-20T06:15:34;8.10;;;5.03;;
10896;SDS011;5501;51.176;6.470;2023-07-20T06:20:36;5.45;;;4.25;;
10896;SDS011;5501;51.176;6.470;2023-07-20T06:25:38;5.07;;;4.18;;
10896;SDS011;5501;51.176;6.470;2023-07-20T06:30:39;6.20;;;4.93;;
10896;SDS011;5501;51.176;6.470;2023-07-20T06:35:41;4.85;;;3.60;;
10896;SDS011;5501;51.176;6.470;2023-07-20T06:40:47;3.90;;;3.42;;
10896;SDS011;5501;51.176;6.470;2023-07-20T06:45:52;3.88;;;3.10;;
10896;SDS011;5501;51.176;6.470;2023-07-20T06:50:56;6.75;;;4.35;;
10896;SDS011;5501;51.176;6.470;2023-07-20T06:55:59;5.70;;;3.80;;
10896;SDS011;5501;51.176;6.470;2023-07-20T07:01:04;8.82;;;3.40;;
10896;SDS011;5501;51.176;6.470;2023-07-20T07:06:07;4.00;;;3.25;;
10896;SDS011;5501;51.176;6.470;2023-07-20T07:11:09;5.22;;;3.70;;
10896;SDS011;5501;51.176;6.470;2023-07-20T07:16:10;5.93;;;3.70;;
10896;SDS011;5501;51.176;6.470;2023-07-20T07:21:12;6.40;;;3.35;;
10896;SDS011;5501;51.176;6.470;2023-07-20T07:26:14;3.67;;;2.75;;
10896;SDS011;5501;51.176;6.470;2023-07-20T07:31:15;3.88;;;3.15;;
10896;SDS011;5501;51.176;6.470;2023-07-20T07:36:17;6.18;;;2.95;;
10896;SDS011;5501;51.176;6.470;2023-07-20T07:41:18;6.60;;;3.42;;
10896;SDS011;5501;51.176;6.470;2023-07-20T07:46:21;3.05;;;2.30;;
10896;SDS011;5501;51.176;6.470;2023-07-20T07:51:23;4.95;;;1.83;;
10896;SDS011;5501;51.176;6.470;2023-07-20T07:56:24;2.53;;;2.30;;
10896;SDS011;5501;51.176;6.470;2023-07-20T08:01:26;2.45;;;1.88;;
10896;SDS011;5501;51.176;6.470;2023-07-20T08:06:28;3.08;;;1.80;;
10896;SDS011;5501;51.176;6.470;2023-07-20T08:11:30;1.75;;;1.65;;
10896;SDS011;5501;51.176;6.470;2023-07-20T08:16:32;3.47;;;2.10;;
10896;SDS011;5501;51.176;6.470;2023-07-20T08:21:33;2.63;;;2.10;;
10896;SDS011;5501;51.176;6.470;2023-07-20T08:26:35;3.63;;;1.45;;
10896;SDS011;5501;51.176;6.470;2023-07-20T08:31:37;1.20;;;1.10;;
10896;SDS011;5501;51.176;6.470;2023-07-20T08:36:38;4.40;;;1.10;;
10896;SDS011;5501;51.176;6.470;2023-07-20T08:41:41;2.67;;;1.60;;
10896;SDS011;5501;51.176;6.470;2023-07-20T08:46:43;1.98;;;1.20;;
10896;SDS011;5501;51.176;6.470;2023-07-20T08:51:46;1.10;;;0.88;;
10896;SDS011;5501;51.176;6.470;2023-07-20T08:56:49;1.50;;;1.30;;
10896;SDS011;5501;51.176;6.470;2023-07-20T09:01:51;3.65;;;1.10;;
10896;SDS011;5501;51.176;6.470;2023-07-20T09:06:55;2.28;;;1.20;;
10896;SDS011;5501;51.176;6.470;2023-07-20T09:11:58;0.80;;;0.80;;
10896;SDS011;5501;51.176;6.470;2023-07-20T09:16:59;1.10;;;0.93;;
10896;SDS011;5501;51.176;6.470;2023-07-20T09:22:01;1.30;;;1.00;;
10896;SDS011;5501;51.176;6.470;2023-07-20T09:27:02;0.90;;;0.90;;
10896;SDS011;5501;51.176;6.470;2023-07-20T09:32:07;1.00;;;0.85;;
10896;SDS011;5501;51.176;6.470;2023-07-20T09:37:24;2.88;;;0.90;;
10896;SDS011;5501;51.176;6.470;2023-07-20T09:42:26;0.80;;;0.80;;
10896;SDS011;5501;51.176;6.470;2023-07-20T09:47:31;0.90;;;0.90;;
10896;SDS011;5501;51.176;6.470;2023-07-20T09:52:38;1.20;;;1.10;;
10896;SDS011;5501;51.176;6.470;2023-07-20T09:57:44;0.88;;;0.85;;
10896;SDS011;5501;51.176;6.470;2023-07-20T10:02:46;1.70;;;1.15;;
10896;SDS011;5501;51.176;6.470;2023-07-20T10:07:49;1.10;;;0.90;;
10896;SDS011;5501;51.176;6.470;2023-07-20T10:13:13;0.80;;;0.80;;
10896;SDS011;5501;51.176;6.470;2023-07-20T10:18:27;0.90;;;0.90;;
10896;SDS011;5501;51.176;6.470;2023-07-20T10:23:32;1.13;;;1.00;;
10896;SDS011;5501;51.176;6.470;2023-07-20T10:28:34;2.22;;;1.30;;
10896;SDS011;5501;51.176;6.470;2023-07-20T10:33:36;0.80;;;0.80;;
10896;SDS011;5501;51.176;6.470;2023-07-20T10:43:50;0.73;;;0.73;;
10896;SDS011;5501;51.176;6.470;2023-07-20T10:49:02;0.85;;;0.85;;
10896;SDS011;5501;51.176;6.470;2023-07-20T10:54:07;1.20;;;0.80;;
10896;SDS011;5501;51.176;6.470;2023-07-20T11:04:39;0.80;;;0.77;;
10896;SDS011;5501;51.176;6.470;2023-07-20T11:09:41;0.95;;;0.70;;
10896;SDS011;5501;51.176;6.470;2023-07-20T11:14:54;0.70;;;0.70;;
10896;SDS011;5501;51.176;6.470;2023-07-20T11:20:01;0.63;;;0.63;;
10896;SDS011;5501;51.176;6.470;2023-07-20T11:25:09;0.60;;;0.60;;
10896;SDS011;5501;51.176;6.470;2023-07-20T11:30:17;0.82;;;0.65;;
10896;SDS011;5501;51.176;6.470;2023-07-20T11:35:19;0.60;;;0.60;;
10896;SDS011;5501;51.176;6.470;2023-07-20T11:40:20;0.70;;;0.50;;
10896;SDS011;5501;51.176;6.470;2023-07-20T11:45:24;0.70;;;0.70;;
10896;SDS011;5501;51.176;6.470;2023-07-20T11:50:26;0.60;;;0.60;;
10896;SDS011;5501;51.176;6.470;2023-07-20T11:55:28;1.77;;;0.80;;
10896;SDS011;5501;51.176;6.470;2023-07-20T12:00:30;0.52;;;0.52;;
10896;SDS011;5501;51.176;6.470;2023-07-20T12:05:33;0.63;;;0.57;;
10896;SDS011;5501;51.176;6.470;2023-07-20T12:10:55;0.63;;;0.63;;
10896;SDS011;5501;51.176;6.470;2023-07-20T12:15:56;0.65;;;0.65;;
10896;SDS011;5501;51.176;6.470;2023-07-20T12:21:08;1.00;;;0.70;;
10896;SDS011;5501;51.176;6.470;2023-07-20T12:26:11;0.70;;;0.70;;
10896;SDS011;5501;51.176;6.470;2023-07-20T12:31:16;0.75;;;0.75;;
10896;SDS011;5501;51.176;6.470;2023-07-20T12:36:18;0.80;;;0.80;;
10896;SDS011;5501;51.176;6.470;2023-07-20T12:41:20;2.88;;;0.60;;
10896;SDS011;5501;51.176;6.470;2023-07-20T12:46:21;0.63;;;0.57;;
10896;SDS011;5501;51.176;6.470;2023-07-20T12:51:24;2.35;;;0.80;;
10896;SDS011;5501;51.176;6.470;2023-07-20T12:56:25;1.50;;;0.75;;
10896;SDS011;5501;51.176;6.470;2023-07-20T13:01:30;0.68;;;0.60;;
10896;SDS011;5501;51.176;6.470;2023-07-20T13:06:31;1.08;;;1.05;;
10896;SDS011;5501;51.176;6.470;2023-07-20T13:11:34;0.60;;;0.60;;
10896;SDS011;5501;51.176;6.470;2023-07-20T13:16:36;0.98;;;0.63;;
10896;SDS011;5501;51.176;6.470;2023-07-20T13:21:38;0.52;;;0.52;;
10896;SDS011;5501;51.176;6.470;2023-07-20T13:26:39;0.40;;;0.40;;
10896;SDS011;5501;51.176;6.470;2023-07-20T13:31:41;0.98;;;0.80;;
10896;SDS011;5501;51.176;6.470;2023-07-20T13:36:44;0.75;;;0.70;;
10896;SDS011;5501;51.176;6.470;2023-07-20T13:41:45;1.48;;;0.70;;
10896;SDS011;5501;51.176;6.470;2023-07-20T13:46:49;1.50;;;0.60;;
10896;SDS011;5501;51.176;6.470;2023-07-20T13:51:51;0.65;;;0.65;;
10896;SDS011;5501;51.176;6.470;2023-07-20T13:56:55;0.70;;;0.70;;
10896;SDS011;5501;51.176;6.470;2023-07-20T14:01:57;2.10;;;0.60;;
10896;SDS011;5501;51.176;6.470;2023-07-20T14:07:01;2.75;;;0.80;;
10896;SDS011;5501;51.176;6.470;2023-07-20T14:12:03;0.70;;;0.57;;
10896;SDS011;5501;51.176;6.470;2023-07-20T14:17:08;0.60;;;0.60;;
10896;SDS011;5501;51.176;6.470;2023-07-20T14:22:09;0.63;;;0.63;;
10896;SDS011;5501;51.176;6.470;2023-07-20T14:27:13;0.93;;;0.80;;
10896;SDS011;5501;51.176;6.470;2023-07-20T14:32:14;0.70;;;0.70;;
10896;SDS011;5501;51.176;6.470;2023-07-20T14:37:16;1.15;;;0.70;;
10896;SDS011;5501;51.176;6.470;2023-07-20T14:42:17;0.90;;;0.75;;
10896;SDS011;5501;51.176;6.470;2023-07-20T14:47:20;0.70;;;0.70;;
10896;SDS011;5501;51.176;6.470;2023-07-20T14:52:23;0.65;;;0.65;;
10896;SDS011;5501;51.176;6.470;2023-07-20T14:57:29;0.95;;;0.82;;
10896;SDS011;5501;51.176;6.470;2023-07-20T15:02:30;0.77;;;0.77;;
10896;SDS011;5501;51.176;6.470;2023-07-20T15:07:32;1.58;;;0.80;;
10896;SDS011;5501;51.176;6.470;2023-07-20T15:12:33;3.42;;;0.80;;
10896;SDS011;5501;51.176;6.470;2023-07-20T15:17:35;0.80;;;0.80;;
10896;SDS011;5501;51.176;6.470;2023-07-20T15:22:37;0.68;;;0.68;;
10896;SDS011;5501;51.176;6.470;2023-07-20T15:27:40;1.35;;;0.90;;
10896;SDS011;5501;51.176;6.470;2023-07-20T15:32:50;0.70;;;0.70;;
10896;SDS011;5501;51.176;6.470;2023-07-20T15:37:55;0.80;;;0.80;;
10896;SDS011;5501;51.176;6.470;2023-07-20T15:42:56;0.70;;;0.70;;
10896;SDS011;5501;51.176;6.470;2023-07-20T15:47:58;0.73;;;0.73;;
10896;SDS011;5501;51.176;6.470;2023-07-20T15:53:00;0.80;;;0.80;;
10896;SDS011;5501;51.176;6.470;2023-07-20T15:58:01;1.38;;;0.80;;
10896;SDS011;5501;51.176;6.470;2023-07-20T16:03:04;5.18;;;0.85;;
10896;SDS011;5501;51.176;6.470;2023-07-20T16:08:06;0.93;;;0.90;;
10896;SDS011;5501;51.176;6.470;2023-07-20T16:13:09;0.70;;;0.70;;
10896;SDS011;5501;51.176;6.470;2023-07-20T16:18:11;0.85;;;0.75;;
10896;SDS011;5501;51.176;6.470;2023-07-20T16:23:13;0.70;;;0.70;;
10896;SDS011;5501;51.176;6.470;2023-07-20T16:28:15;1.52;;;0.93;;
10896;SDS011;5501;51.176;6.470;2023-07-20T16:33:17;1.17;;;0.80;;
10896;SDS011;5501;51.176;6.470;2023-07-20T16:38:18;0.60;;;0.60;;
10896;SDS011;5501;51.176;6.470;2023-07-20T16:43:20;1.15;;;0.93;;
10896;SDS011;5501;51.176;6.470;2023-07-20T16:48:24;0.70;;;0.70;;
10896;SDS011;5501;51.176;6.470;2023-07-20T16:53:26;0.88;;;0.88;;
10896;SDS011;5501;51.176;6.470;2023-07-20T16:58:28;0.75;;;0.75;;
10896;SDS011;5501;51.176;6.470;2023-07-20T17:03:29;1.05;;;0.95;;
10896;SDS011;5501;51.176;6.470;2023-07-20T17:08:32;1.55;;;0.90;;
10896;SDS011;5501;51.176;6.470;2023-07-20T17:13:34;0.80;;;0.80;;
10896;SDS011;5501;51.176;6.470;2023-07-20T17:18:35;0.60;;;0.60;;
10896;SDS011;5501;51.176;6.470;2023-07-20T17:23:37;4.03;;;0.90;;
10896;SDS011;5501;51.176;6.470;2023-07-20T17:28:42;1.13;;;0.95;;
10896;SDS011;5501;51.176;6.470;2023-07-20T17:33:46;2.05;;;1.00;;
10896;SDS011;5501;51.176;6.470;2023-07-20T17:38:48;1.10;;;1.00;;
10896;SDS011;5501;51.176;6.470;2023-07-20T17:43:49;1.00;;;0.80;;
10896;SDS011;5501;51.176;6.470;2023-07-20T17:48:51;1.40;;;1.17;;
10896;SDS011;5501;51.176;6.470;2023-07-20T17:53:52;1.65;;;1.40;;
10896;SDS011;5501;51.176;6.470;2023-07-20T17:58:54;1.80;;;0.98;;
10896;SDS011;5501;51.176;6.470;2023-07-20T18:03:55;1.77;;;1.30;;
10896;SDS011;5501;51.176;6.470;2023-07-20T18:08:57;1.20;;;0.98;;
10896;SDS011;5501;51.176;6.470;2023-07-20T18:13:58;1.20;;;0.88;;
10896;SDS011;5501;51.176;6.470;2023-07-20T18:19:02;2.03;;;1.25;;
10896;SDS011;5501;51.176;6.470;2023-07-20T18:24:03;1.17;;;0.90;;
10896;SDS011;5501;51.176;6.470;2023-07-20T18:29:05;1.27;;;1.17;;
10896;SDS011;5501;51.176;6.470;2023-07-20T18:34:07;1.02;;;0.80;;
10896;SDS011;5501;51.176;6.470;2023-07-20T18:39:08;1.00;;;0.90;;
10896;SDS011;5501;51.176;6.470;2023-07-20T18:44:10;1.85;;;1.27;;
10896;SDS011;5501;51.176;6.470;2023-07-20T18:49:11;0.90;;;0.90;;
10896;SDS011;5501;51.176;6.470;2023-07-20T18:54:13;0.93;;;0.80;;
10896;SDS011;5501;51.176;6.470;2023-07-20T18:59:15;1.52;;;1.33;;
10896;SDS011;5501;51.176;6.470;2023-07-20T19:04:17;0.77;;;0.77;;
10896;SDS011;5501;51.176;6.470;2023-07-20T19:09:19;1.40;;;1.00;;
10896;SDS011;5501;51.176;6.470;2023-07-20T19:14:20;1.40;;;1.05;;
10896;SDS011;5501;51.176;6.470;2023-07-20T19:19:22;1.75;;;1.10;;
10896;SDS011;5501;51.176;6.470;2023-07-20T19:24:24;3.65;;;0.75;;
10896;SDS011;5501;51.176;6.470;2023-07-20T19:29:25;1.13;;;0.95;;
10896;SDS011;5501;51.176;6.470;2023-07-20T19:34:27;1.10;;;1.00;;
10896;SDS011;5501;51.176;6.470;2023-07-20T19:39:29;0.90;;;0.90;;
10896;SDS011;5501;51.176;6.470;2023-07-20T19:44:31;0.88;;;0.82;;
10896;SDS011;5501;51.176;6.470;2023-07-20T19:49:33;1.35;;;1.10;;
10896;SDS011;5501;51.176;6.470;2023-07-20T19:54:34;1.65;;;1.30;;
10896;SDS011;5501;51.176;6.470;2023-07-20T19:59:36;1.20;;;1.10;;
10896;SDS011;5501;51.176;6.470;2023-07-20T20:04:37;2.00;;;1.80;;
10896;SDS011;5501;51.176;6.470;2023-07-20T20:09:42;2.40;;;2.00;;
10896;SDS011;5501;51.176;6.470;2023-07-20T20:14:43;1.88;;;1.77;;
10896;SDS011;5501;51.176;6.470;2023-07-20T20:19:45;2.35;;;2.15;;
10896;SDS011;5501;51.176;6.470;2023-07-20T20:24:48;3.50;;;1.92;;
10896;SDS011;5501;51.176;6.470;2023-07-20T20:29:49;2.15;;;1.95;;
10896;SDS011;5501;51.176;6.470;2023-07-20T20:34:52;2.50;;;2.22;;
10896;SDS011;5501;51.176;6.470;2023-07-20T20:39:53;2.85;;;1.98;;
10896;SDS011;5501;51.176;6.470;2023-07-20T20:44:55;6.20;;;2.10;;
10896;SDS011;5501;51.176;6.470;2023-07-20T20:50:00;2.25;;;1.90;;
10896;SDS011;5501;51.176;6.470;2023-07-20T20:55:02;2.15;;;1.88;;
10896;SDS011;5501;51.176;6.470;2023-07-20T21:00:04;3.60;;;2.10;;
10896;SDS011;5501;51.176;6.470;2023-07-20T21:05:08;2.47;;;2.28;;
10896;SDS011;5501;51.176;6.470;2023-07-20T21:10:09;2.05;;;1.85;;
10896;SDS011;5501;51.176;6.470;2023-07-20T21:15:11;1.83;;;1.73;;
10896;SDS011;5501;51.176;6.470;2023-07-20T21:20:13;3.75;;;2.22;;
10896;SDS011;5501;51.176;6.470;2023-07-20T21:25:15;2.25;;;2.03;;
10896;SDS011;5501;51.176;6.470;2023-07-20T21:30:16;2.50;;;2.28;;
10896;SDS011;5501;51.176;6.470;2023-07-20T21:35:19;1.90;;;1.80;;
10896;SDS011;5501;51.176;6.470;2023-07-20T21:40:21;2.50;;;1.98;;
10896;SDS011;5501;51.176;6.470;2023-07-20T21:45:22;2.10;;;1.90;;
10896;SDS011;5501;51.176;6.470;2023-07-20T21:50:24;5.18;;;2.80;;
10896;SDS011;5501;51.176;6.470;2023-07-20T21:55:25;2.80;;;2.60;;
10896;SDS011;5501;51.176;6.470;2023-07-20T22:00:27;2.50;;;2.30;;
10896;SDS011;5501;51.176;6.470;2023-07-20T22:05:29;2.78;;;2.58;;
10896;SDS011;5501;51.176;6.470;2023-07-20T22:10:30;2.83;;;2.63;;
10896;SDS011;5501;51.176;6.470;2023-07-20T22:15:32;2.92;;;2.67;;
10896;SDS011;5501;51.176;6.470;2023-07-20T22:20:34;3.22;;;2.92;;
10896;SDS011;5501;51.176;6.470;2023-07-20T22:25:36;3.00;;;2.70;;
10896;SDS011;5501;51.176;6.470;2023-07-20T22:30:37;3.22;;;2.58;;
10896;SDS011;5501;51.176;6.470;2023-07-20T22:35:41;3.20;;;2.90;;
10896;SDS011;5501;51.176;6.470;2023-07-20T22:40:43;2.85;;;2.65;;
10896;SDS011;5501;51.176;6.470;2023-07-20T22:45:44;3.47;;;3.00;;
10896;SDS011;5501;51.176;6.470;2023-07-20T22:50:46;5.68;;;2.97;;
10896;SDS011;5501;51.176;6.470;2023-07-20T22:55:49;3.25;;;2.95;;
10896;SDS011;5501;51.176;6.470;2023-07-20T23:00:51;3.30;;;3.00;;
10896;SDS011;5501;51.176;6.470;2023-07-20T23:05:52;3.08;;;2.75;;
10896;SDS011;5501;51.176;6.470;2023-07-20T23:10:54;3.28;;;2.97;;
10896;SDS011;5501;51.176;6.470;2023-07-20T23:15:56;4.57;;;2.97;;
10896;SDS011;5501;51.176;6.470;2023-07-20T23:20:58;4.65;;;3.20;;
10896;SDS011;5501;51.176;6.470;2023-07-20T23:26:00;3.00;;;2.72;;
10896;SDS011;5501;51.176;6.470;2023-07-20T23:31:03;3.00;;;2.70;;
10896;SDS011;5501;51.176;6.470;2023-07-20T23:36:04;3.92;;;3.15;;
10896;SDS011;5501;51.176;6.470;2023-07-20T23:41:09;3.53;;;3.20;;
10896;SDS011;5501;51.176;6.470;2023-07-20T23:46:11;3.30;;;3.03;;
10896;SDS011;5501;51.176;6.470;2023-07-20T23:51:14;3.72;;;3.30;;
10896;SDS011;5501;51.176;6.470;2023-07-20T23:56:16;3.80;;;3.05;;
